createdAt,value
2022-07-27T00:01:53.532Z,6.60
2022-07-27T00:04:20.958Z,6.78
2022-07-27T00:06:48.653Z,6.47
2022-07-27T00:09:17.650Z,6.03
2022-07-27T00:11:46.232Z,5.95
2022-07-27T00:14:13.592Z,5.70
2022-07-27T00:16:40.972Z,6.88
2022-07-27T00:19:09.616Z,6.47
2022-07-27T00:21:44.757Z,6.45
2022-07-27T00:24:13.466Z,5.85
2022-07-27T00:26:40.541Z,5.50
2022-07-27T00:29:08.466Z,5.60
2022-07-27T00:31:35.879Z,4.88
2022-07-27T00:34:03.014Z,5.43
2022-07-27T00:36:30.239Z,5.90
2022-07-27T00:38:57.429Z,5.03
2022-07-27T00:41:24.574Z,5.47
2022-07-27T00:43:59.637Z,5.53
2022-07-27T00:46:28.510Z,5.57
2022-07-27T00:48:55.897Z,6.07
2022-07-27T00:51:23.920Z,5.60
2022-07-27T00:53:54.818Z,6.25
2022-07-27T00:56:22.746Z,8.40
2022-07-27T00:58:52.120Z,7.65
2022-07-27T01:01:20.188Z,7.78
2022-07-27T01:03:47.908Z,7.43
2022-07-27T01:06:16.095Z,7.22
2022-07-27T01:08:43.740Z,8.13
2022-07-27T01:11:11.460Z,6.72
2022-07-27T01:13:38.889Z,7.50
2022-07-27T01:16:07.174Z,7.28
2022-07-27T01:18:39.066Z,7.57
2022-07-27T01:21:08.608Z,7.05
2022-07-27T01:23:36.489Z,6.80
2022-07-27T01:26:05.118Z,6.72
2022-07-27T01:28:32.516Z,7.65
2022-07-27T01:30:59.777Z,7.18
2022-07-27T01:33:26.929Z,7.05
2022-07-27T01:35:56.729Z,7.13
2022-07-27T01:38:24.657Z,7.95
2022-07-27T01:40:53.269Z,9.00
2022-07-27T01:43:21.595Z,12.65
2022-07-27T01:45:48.849Z,16.02
2022-07-27T01:48:16.128Z,23.35
2022-07-27T01:50:47.552Z,30.63
2022-07-27T01:53:15.015Z,28.38
2022-07-27T01:55:42.382Z,26.67
2022-07-27T01:58:09.715Z,25.80
2022-07-27T02:00:37.551Z,17.95
2022-07-27T02:03:07.243Z,14.02
2022-07-27T02:05:36.191Z,13.35
2022-07-27T02:08:05.754Z,12.10
2022-07-27T02:10:34.291Z,11.93
2022-07-27T02:15:43.054Z,11.48
2022-07-27T02:18:29.346Z,10.63
2022-07-27T02:20:57.792Z,10.77
2022-07-27T02:23:25.776Z,9.95
2022-07-27T02:25:52.957Z,10.13
2022-07-27T02:28:20.039Z,10.05
2022-07-27T02:30:47.173Z,9.93
2022-07-27T02:33:14.516Z,10.18
2022-07-27T02:35:41.629Z,10.40
2022-07-27T02:38:08.924Z,11.88
2022-07-27T02:40:36.180Z,10.93
2022-07-27T02:43:03.363Z,12.23
2022-07-27T02:45:30.520Z,12.05
2022-07-27T02:47:57.765Z,13.35
2022-07-27T02:50:25.105Z,16.75
2022-07-27T02:52:52.226Z,18.35
2022-07-27T02:55:19.396Z,24.48
2022-07-27T02:57:46.521Z,28.65
2022-07-27T03:00:15.406Z,27.83
2022-07-27T03:02:43.060Z,26.00
2022-07-27T03:05:10.927Z,26.73
2022-07-27T03:07:38.106Z,30.65
2022-07-27T03:10:06.837Z,29.38
2022-07-27T03:12:34.003Z,29.33
2022-07-27T03:15:01.257Z,25.23
2022-07-27T03:17:28.407Z,24.27
2022-07-27T03:19:55.732Z,24.10
2022-07-27T03:22:22.923Z,15.25
2022-07-27T03:24:50.050Z,17.25
2022-07-27T03:27:17.235Z,14.98
2022-07-27T03:29:44.547Z,11.75
2022-07-27T03:32:11.684Z,10.00
2022-07-27T03:34:38.805Z,9.23
2022-07-27T03:37:05.919Z,7.43
2022-07-27T03:39:33.238Z,7.60
2022-07-27T03:42:00.433Z,8.05
2022-07-27T03:44:27.639Z,7.03
2022-07-27T03:46:54.886Z,7.65
2022-07-27T03:49:22.065Z,7.55
2022-07-27T03:51:49.200Z,7.20
2022-07-27T03:54:17.264Z,7.60
2022-07-27T03:56:44.959Z,7.50
2022-07-27T03:59:12.437Z,7.80
2022-07-27T04:01:39.899Z,7.47
2022-07-27T04:04:07.161Z,9.18
2022-07-27T04:06:34.390Z,9.85
2022-07-27T04:09:08.853Z,9.93
2022-07-27T04:11:37.863Z,7.53
2022-07-27T04:14:18.488Z,7.88
2022-07-27T04:16:46.651Z,7.20
2022-07-27T04:19:14.158Z,7.68
2022-07-27T04:21:41.480Z,7.88
2022-07-27T04:24:09.113Z,9.05
2022-07-27T04:26:36.467Z,7.68
2022-07-27T04:29:04.001Z,7.80
2022-07-27T04:31:31.542Z,7.88
2022-07-27T04:33:58.748Z,7.65
2022-07-27T04:36:25.870Z,8.90
2022-07-27T04:38:53.201Z,8.83
2022-07-27T04:41:20.282Z,7.85
2022-07-27T04:43:47.615Z,7.93
2022-07-27T04:46:15.434Z,9.60
2022-07-27T04:51:17.801Z,7.80
2022-07-27T04:53:53.343Z,7.55
2022-07-27T04:56:28.930Z,8.23
2022-07-27T04:58:56.237Z,7.97
2022-07-27T05:01:24.847Z,8.05
2022-07-27T05:03:52.357Z,8.48
2022-07-27T05:06:19.639Z,7.88
2022-07-27T05:08:46.880Z,7.90
2022-07-27T05:11:14.219Z,8.23
2022-07-27T05:16:12.322Z,7.85
2022-07-27T05:18:39.901Z,8.40
2022-07-27T05:21:08.029Z,7.72
2022-07-27T05:23:35.556Z,8.18
2022-07-27T05:26:03.057Z,8.23
2022-07-27T05:28:30.269Z,8.10
2022-07-27T05:30:57.408Z,9.15
2022-07-27T05:33:24.935Z,7.85
2022-07-27T05:38:19.288Z,7.97
2022-07-27T05:40:46.933Z,7.35
2022-07-27T05:43:14.593Z,8.80
2022-07-27T05:45:41.863Z,7.07
2022-07-27T05:50:36.431Z,7.10
2022-07-27T05:53:03.797Z,7.30
2022-07-27T05:55:31.000Z,7.30
2022-07-27T06:00:25.300Z,8.10
2022-07-27T06:02:52.465Z,6.85
2022-07-27T06:05:19.669Z,6.53
2022-07-27T06:07:58.998Z,6.68
2022-07-27T06:10:31.789Z,6.82
2022-07-27T06:13:05.731Z,6.55
2022-07-27T06:15:33.531Z,5.68
2022-07-27T06:18:03.028Z,6.57
2022-07-27T06:20:30.686Z,6.85
2022-07-27T06:23:02.591Z,6.03
2022-07-27T06:25:35.973Z,5.40
2022-07-27T06:28:04.929Z,6.70
2022-07-27T06:30:32.534Z,5.15
2022-07-27T06:33:04.957Z,5.60
2022-07-27T06:35:33.921Z,5.50
2022-07-27T06:38:02.246Z,6.15
2022-07-27T06:40:30.134Z,5.75
2022-07-27T06:42:59.457Z,5.50
2022-07-27T06:45:26.800Z,5.40
2022-07-27T06:47:53.959Z,5.63
2022-07-27T06:50:22.192Z,5.80
2022-07-27T06:52:49.372Z,5.65
2022-07-27T06:55:17.145Z,5.07
2022-07-27T06:57:45.604Z,5.32
2022-07-27T07:00:13.839Z,5.57
2022-07-27T07:03:02.558Z,5.70
2022-07-27T07:05:31.646Z,6.15
2022-07-27T07:08:00.321Z,5.35
2022-07-27T07:10:27.841Z,6.25
2022-07-27T07:13:02.451Z,6.03
2022-07-27T07:15:29.908Z,6.53
2022-07-27T07:20:24.298Z,6.57
2022-07-27T07:22:51.748Z,7.07
2022-07-27T07:27:47.613Z,6.28
2022-07-27T07:30:15.633Z,8.82
2022-07-27T07:32:42.813Z,5.88
2022-07-27T07:35:11.099Z,8.18
2022-07-27T07:37:38.491Z,6.28
2022-07-27T07:43:05.038Z,6.13
2022-07-27T07:45:37.362Z,6.35
2022-07-27T07:48:06.612Z,6.40
2022-07-27T07:50:34.257Z,7.15
2022-07-27T07:53:01.461Z,6.47
2022-07-27T07:55:29.054Z,6.03
2022-07-27T07:57:57.522Z,6.68
2022-07-27T08:02:55.286Z,7.55
2022-07-27T08:05:22.806Z,7.00
2022-07-27T08:07:50.875Z,6.43
2022-07-27T08:10:20.610Z,7.45
2022-07-27T08:12:52.990Z,6.72
2022-07-27T08:15:20.850Z,5.88
2022-07-27T08:17:57.008Z,6.67
2022-07-27T08:20:27.616Z,5.97
2022-07-27T08:22:54.864Z,5.82
2022-07-27T08:25:22.422Z,5.95
2022-07-27T08:27:49.721Z,6.18
2022-07-27T08:35:28.860Z,6.60
2022-07-27T08:37:57.126Z,6.57
2022-07-27T08:40:44.245Z,5.68
2022-07-27T08:43:17.560Z,6.18
2022-07-27T08:45:58.278Z,7.65
2022-07-27T08:48:27.432Z,6.35
2022-07-27T08:50:54.962Z,5.93
2022-07-27T08:53:23.077Z,9.82
2022-07-27T08:55:50.537Z,7.10
2022-07-27T08:58:17.936Z,5.90
2022-07-27T09:00:51.199Z,6.70
2022-07-27T09:03:22.200Z,6.47
2022-07-27T09:05:55.367Z,5.43
2022-07-27T09:08:30.768Z,5.90
2022-07-27T09:10:59.576Z,7.38
2022-07-27T09:13:33.563Z,6.95
2022-07-27T09:16:23.006Z,8.43
2022-07-27T09:19:02.336Z,6.65
2022-07-27T09:21:29.743Z,6.40
2022-07-27T09:24:23.551Z,6.40
2022-07-27T09:27:05.084Z,5.93
2022-07-27T09:29:36.105Z,6.70
2022-07-27T09:32:16.838Z,6.32
2022-07-27T09:34:45.002Z,5.90
2022-07-27T09:37:27.213Z,7.20
2022-07-27T09:40:13.137Z,6.32
2022-07-27T09:43:08.774Z,5.72
2022-07-27T09:45:36.280Z,6.07
2022-07-27T09:48:15.809Z,5.65
2022-07-27T09:51:02.289Z,5.38
2022-07-27T09:53:42.988Z,6.35
2022-07-27T09:56:15.357Z,5.80
2022-07-27T09:58:58.578Z,6.03
2022-07-27T10:01:26.820Z,5.95
2022-07-27T10:03:57.870Z,5.45
2022-07-27T10:06:27.000Z,6.35
2022-07-27T10:08:56.041Z,5.22
2022-07-27T10:11:24.557Z,5.45
2022-07-27T10:13:54.088Z,6.15
2022-07-27T10:16:26.108Z,5.40
2022-07-27T10:19:08.014Z,6.20
2022-07-27T10:21:38.831Z,5.03
2022-07-27T10:24:22.504Z,5.45
2022-07-27T10:26:49.954Z,6.03
2022-07-27T10:29:20.225Z,5.72
2022-07-27T10:31:53.504Z,5.80
2022-07-27T10:34:42.640Z,7.45
2022-07-27T10:37:16.401Z,5.97
2022-07-27T10:40:12.827Z,5.75
2022-07-27T10:42:40.519Z,6.53
2022-07-27T10:47:51.693Z,6.93
2022-07-27T10:50:26.154Z,5.88
2022-07-27T10:52:56.321Z,6.93
2022-07-27T10:55:45.168Z,6.47
2022-07-27T10:58:15.284Z,5.90
2022-07-27T11:00:53.672Z,5.97
2022-07-27T11:03:34.210Z,7.30
2022-07-27T11:11:50.971Z,5.30
2022-07-27T11:14:19.087Z,5.38
2022-07-27T11:16:55.637Z,6.40
2022-07-27T11:19:24.247Z,6.03
2022-07-27T11:21:53.212Z,5.60
2022-07-27T11:24:22.875Z,5.47
2022-07-27T11:26:52.018Z,5.10
2022-07-27T11:29:22.217Z,5.93
2022-07-27T11:31:56.987Z,5.97
2022-07-27T11:34:38.215Z,6.68
2022-07-27T11:37:18.338Z,6.07
2022-07-27T11:40:03.258Z,5.75
2022-07-27T11:42:41.298Z,6.10
2022-07-27T11:45:09.025Z,6.45
2022-07-27T11:47:36.461Z,5.05
2022-07-27T11:50:10.634Z,5.43
2022-07-27T11:52:38.029Z,6.65
2022-07-27T11:55:07.246Z,5.90
2022-07-27T11:57:35.540Z,6.20
2022-07-27T12:00:03.263Z,4.97
2022-07-27T12:02:50.662Z,5.07
2022-07-27T12:05:17.956Z,5.80
2022-07-27T12:07:45.181Z,5.75
2022-07-27T12:10:12.823Z,5.07
2022-07-27T12:12:40.087Z,4.72
2022-07-27T12:15:42.877Z,5.18
2022-07-27T12:18:00.580Z,6.03
2022-07-27T12:20:35.915Z,10.27
2022-07-27T12:23:06.884Z,7.50
2022-07-27T12:25:34.601Z,5.38
2022-07-27T12:28:17.105Z,5.75
2022-07-27T12:30:50.887Z,6.38
2022-07-27T12:33:37.122Z,6.50
2022-07-27T12:36:08.028Z,5.63
2022-07-27T12:38:44.761Z,5.57
2022-07-27T12:41:30.271Z,6.80
2022-07-27T12:44:16.296Z,5.68
2022-07-27T12:47:01.269Z,5.47
2022-07-27T12:49:34.105Z,4.95
2022-07-27T12:52:09.688Z,5.95
2022-07-27T12:54:37.907Z,6.18
2022-07-27T12:57:05.250Z,6.00
2022-07-27T12:59:32.469Z,5.90
2022-07-27T13:01:59.934Z,6.35
2022-07-27T13:04:27.267Z,6.20
2022-07-27T13:06:54.644Z,6.53
2022-07-27T13:09:21.898Z,5.68
2022-07-27T13:11:48.964Z,5.18
2022-07-27T13:14:16.399Z,5.80
2022-07-27T13:16:43.759Z,5.65
2022-07-27T13:19:13.935Z,7.90
2022-07-27T13:21:41.677Z,5.72
2022-07-27T13:24:09.670Z,6.22
2022-07-27T13:26:37.712Z,5.18
2022-07-27T13:29:05.099Z,5.38
2022-07-27T13:31:33.006Z,5.47
2022-07-27T13:34:00.311Z,5.07
2022-07-27T13:36:27.445Z,5.55
2022-07-27T13:38:56.034Z,5.40
2022-07-27T13:41:23.258Z,5.25
2022-07-27T13:43:50.450Z,5.90
2022-07-27T13:46:17.655Z,6.50
2022-07-27T13:48:44.886Z,6.13
2022-07-27T13:51:12.210Z,6.10
2022-07-27T13:53:39.402Z,6.20
2022-07-27T13:56:06.872Z,6.28
2022-07-27T13:58:34.734Z,5.68
2022-07-27T14:01:07.311Z,5.70
2022-07-27T14:03:35.116Z,5.80
2022-07-27T14:06:02.606Z,5.35
2022-07-27T14:08:30.419Z,6.10
2022-07-27T14:10:57.572Z,6.35
2022-07-27T14:13:25.864Z,5.53
2022-07-27T14:15:55.260Z,5.90
2022-07-27T14:18:31.794Z,5.18
2022-07-27T14:21:03.338Z,5.40
2022-07-27T14:23:31.003Z,5.65
2022-07-27T14:25:59.307Z,5.47
2022-07-27T14:28:28.486Z,6.00
2022-07-27T14:30:56.601Z,5.85
2022-07-27T14:33:25.352Z,5.90
2022-07-27T14:35:58.624Z,6.90
2022-07-27T14:38:30.676Z,6.13
2022-07-27T14:41:00.094Z,6.82
2022-07-27T14:43:28.026Z,7.57
2022-07-27T14:45:56.543Z,6.57
2022-07-27T14:48:42.187Z,6.80
2022-07-27T14:51:11.157Z,6.60
2022-07-27T14:53:38.331Z,6.65
2022-07-27T14:56:05.580Z,7.32
2022-07-27T14:58:32.794Z,8.80
2022-07-27T15:01:00.187Z,6.88
2022-07-27T15:03:27.459Z,6.25
2022-07-27T15:05:54.713Z,7.10
2022-07-27T15:08:23.970Z,7.00
2022-07-27T15:10:51.345Z,5.88
2022-07-27T15:13:18.597Z,6.40
2022-07-27T15:15:47.900Z,6.40
2022-07-27T15:18:17.992Z,6.72
2022-07-27T15:20:45.427Z,6.70
2022-07-27T15:23:13.359Z,7.63
2022-07-27T15:25:40.577Z,5.82
2022-07-27T15:28:07.970Z,5.97
2022-07-27T15:30:38.629Z,5.13
2022-07-27T15:33:06.762Z,5.93
2022-07-27T15:38:01.242Z,5.70
2022-07-27T15:40:37.540Z,6.60
2022-07-27T15:43:11.467Z,6.25
2022-07-27T15:45:47.381Z,6.38
2022-07-27T15:48:16.983Z,5.93
2022-07-27T15:50:50.314Z,7.45
2022-07-27T15:53:20.165Z,6.43
2022-07-27T15:55:48.538Z,6.78
2022-07-27T15:58:18.805Z,6.82
2022-07-27T16:00:49.276Z,6.47
2022-07-27T16:03:18.363Z,6.78
2022-07-27T16:05:50.194Z,7.32
2022-07-27T16:08:18.684Z,6.28
2022-07-27T16:10:48.373Z,7.10
2022-07-27T16:13:16.013Z,5.90
2022-07-27T16:16:02.070Z,6.80
2022-07-27T16:18:29.577Z,5.88
2022-07-27T16:20:56.829Z,6.50
2022-07-27T16:23:24.271Z,6.00
2022-07-27T16:26:06.305Z,5.53
2022-07-27T16:28:38.992Z,5.70
2022-07-27T16:31:10.669Z,6.47
2022-07-27T16:33:39.450Z,5.22
2022-07-27T16:36:08.395Z,5.30
2022-07-27T16:38:38.248Z,5.65
2022-07-27T16:41:21.297Z,5.78
2022-07-27T16:43:49.388Z,5.40
2022-07-27T16:46:17.213Z,6.07
2022-07-27T16:48:44.849Z,4.85
2022-07-27T16:53:44.291Z,4.78
2022-07-27T16:56:11.683Z,4.65
2022-07-27T16:58:39.608Z,5.35
2022-07-27T17:01:08.257Z,4.82
2022-07-27T17:03:36.975Z,4.10
2022-07-27T17:06:06.631Z,4.10
2022-07-27T17:08:35.693Z,5.00
2022-07-27T17:11:06.053Z,4.72
2022-07-27T17:13:35.688Z,4.90
2022-07-27T17:16:08.179Z,5.13
2022-07-27T17:18:40.281Z,4.70
2022-07-27T17:21:11.774Z,4.90
2022-07-27T17:23:40.979Z,5.05
2022-07-27T17:26:09.682Z,5.18
2022-07-27T17:28:40.933Z,4.90
2022-07-27T17:31:11.670Z,5.30
2022-07-27T17:33:40.537Z,5.53
2022-07-27T17:36:14.121Z,5.43
2022-07-27T17:38:44.007Z,5.47
2022-07-27T17:41:13.127Z,5.95
2022-07-27T17:43:40.692Z,5.25
2022-07-27T17:46:09.741Z,5.10
2022-07-27T17:48:38.287Z,5.10
2022-07-27T17:51:07.982Z,4.95
2022-07-27T17:53:35.278Z,5.45
2022-07-27T17:56:03.993Z,7.10
2022-07-27T17:58:31.319Z,7.30
2022-07-27T18:00:58.645Z,8.35
2022-07-27T18:03:26.443Z,7.20
2022-07-27T18:08:21.024Z,6.45
2022-07-27T18:10:50.757Z,7.18
2022-07-27T18:13:18.665Z,5.85
2022-07-27T18:15:54.014Z,6.63
2022-07-27T18:18:24.225Z,5.93
2022-07-27T18:20:54.856Z,5.75
2022-07-27T18:23:25.303Z,6.30
2022-07-27T18:25:52.534Z,6.28
2022-07-27T18:28:20.626Z,6.18
2022-07-27T18:30:51.481Z,7.32
2022-07-27T18:33:19.820Z,7.07
2022-07-27T18:35:47.276Z,6.18
2022-07-27T18:38:14.916Z,6.50
2022-07-27T18:40:46.793Z,6.13
2022-07-27T18:43:15.913Z,7.82
2022-07-27T18:45:43.604Z,7.30
2022-07-27T18:48:11.002Z,9.10
2022-07-27T18:50:40.117Z,10.77
2022-07-27T18:53:08.646Z,8.55
2022-07-27T18:55:36.621Z,9.88
2022-07-27T19:00:32.807Z,11.85
2022-07-27T19:03:00.132Z,11.52
2022-07-27T19:05:32.624Z,10.02
2022-07-27T19:08:13.213Z,10.77
2022-07-27T19:10:42.318Z,9.18
2022-07-27T19:13:11.150Z,7.78
2022-07-27T19:15:39.112Z,8.25
2022-07-27T19:18:07.241Z,9.00
2022-07-27T19:20:38.259Z,8.63
2022-07-27T19:23:06.549Z,8.88
2022-07-27T19:25:33.949Z,8.00
2022-07-27T19:28:03.445Z,8.60
2022-07-27T19:30:31.083Z,8.73
2022-07-27T19:32:58.507Z,10.20
2022-07-27T19:35:26.181Z,8.88
2022-07-27T19:37:53.383Z,11.10
2022-07-27T19:45:35.919Z,12.52
2022-07-27T19:48:05.091Z,14.13
2022-07-27T19:53:00.480Z,10.97
2022-07-27T19:55:27.768Z,9.70
2022-07-27T19:57:55.010Z,8.63
2022-07-27T20:00:22.405Z,7.70
2022-07-27T20:02:49.797Z,8.35
2022-07-27T20:05:17.423Z,7.47
2022-07-27T20:07:45.090Z,8.15
2022-07-27T20:10:12.339Z,7.93
2022-07-27T20:12:39.692Z,8.05
2022-07-27T20:15:08.034Z,9.87
2022-07-27T20:17:37.126Z,9.32
2022-07-27T20:20:10.073Z,9.48
2022-07-27T20:22:40.389Z,9.38
2022-07-27T20:25:09.866Z,8.35
2022-07-27T20:27:38.236Z,8.65
2022-07-27T20:30:06.644Z,7.90
2022-07-27T20:32:34.031Z,11.35
2022-07-27T20:35:01.701Z,9.20
2022-07-27T20:37:28.971Z,9.32
2022-07-27T20:39:56.118Z,9.37
2022-07-27T20:42:23.365Z,8.95
2022-07-27T20:44:50.571Z,11.27
2022-07-27T20:47:18.289Z,10.00
2022-07-27T20:49:45.568Z,11.05
2022-07-27T20:52:12.758Z,10.65
2022-07-27T20:54:40.183Z,12.02
2022-07-27T20:57:07.585Z,10.00
2022-07-27T20:59:34.895Z,10.32
2022-07-27T21:02:02.209Z,9.80
2022-07-27T21:04:29.409Z,8.43
2022-07-27T21:06:56.563Z,9.85
2022-07-27T21:09:23.823Z,10.70
2022-07-27T21:11:51.621Z,9.75
2022-07-27T21:14:18.872Z,9.70
2022-07-27T21:16:46.076Z,8.63
2022-07-27T21:19:13.766Z,10.20
2022-07-27T21:21:41.321Z,10.10
2022-07-27T21:24:15.263Z,7.75
2022-07-27T21:26:48.674Z,6.35
2022-07-27T21:29:17.492Z,6.68
2022-07-27T21:31:46.494Z,5.22
2022-07-27T21:34:15.935Z,6.28
2022-07-27T21:36:44.504Z,6.13
2022-07-27T21:39:11.920Z,7.53
2022-07-27T21:41:39.178Z,7.47
2022-07-27T21:44:06.449Z,9.00
2022-07-27T21:46:33.697Z,10.55
2022-07-27T21:49:01.106Z,10.13
2022-07-27T21:51:28.450Z,10.88
2022-07-27T21:53:56.259Z,16.97
2022-07-27T21:56:24.012Z,16.30
2022-07-27T21:58:51.420Z,14.85
2022-07-27T22:01:18.912Z,9.70
2022-07-27T22:03:46.425Z,7.22
2022-07-27T22:06:13.780Z,6.50
2022-07-27T22:08:41.544Z,8.07
2022-07-27T22:11:08.691Z,7.75
2022-07-27T22:13:35.948Z,6.80
2022-07-27T22:16:04.014Z,7.00
2022-07-27T22:20:58.706Z,7.03
2022-07-27T22:23:26.002Z,6.07
2022-07-27T22:25:53.212Z,6.78
2022-07-27T22:28:21.139Z,7.47
2022-07-27T22:31:16.568Z,7.10
2022-07-27T22:33:44.520Z,6.18
2022-07-27T22:36:12.400Z,6.43
2022-07-27T22:38:39.830Z,6.90
2022-07-27T22:41:07.509Z,7.32
2022-07-27T22:43:35.068Z,8.02
2022-07-27T22:46:04.067Z,8.80
2022-07-27T22:48:31.727Z,7.95
2022-07-27T22:50:58.909Z,7.22
2022-07-27T22:53:26.091Z,9.13
2022-07-27T22:55:53.374Z,10.88
2022-07-27T22:58:21.078Z,9.10
2022-07-27T23:00:48.352Z,9.80
2022-07-27T23:03:15.876Z,16.77
2022-07-27T23:05:43.064Z,17.88
2022-07-27T23:08:10.225Z,13.43
2022-07-27T23:10:47.186Z,10.40
2022-07-27T23:13:18.139Z,9.27
2022-07-27T23:15:46.773Z,8.77
2022-07-27T23:18:14.487Z,9.15
2022-07-27T23:20:42.027Z,9.27
2022-07-27T23:23:12.456Z,8.63
2022-07-27T23:25:47.687Z,8.00
2022-07-27T23:28:15.845Z,7.55
2022-07-27T23:33:10.352Z,7.97
2022-07-27T23:35:37.635Z,6.77
2022-07-27T23:38:04.885Z,7.57
2022-07-27T23:40:31.945Z,6.07
2022-07-27T23:42:59.112Z,7.50
2022-07-27T23:45:27.379Z,7.15
2022-07-27T23:47:54.582Z,7.07
2022-07-27T23:50:22.559Z,7.05
2022-07-27T23:52:49.659Z,6.93
2022-07-27T23:55:16.905Z,6.90
2022-07-27T23:57:44.100Z,7.10
